sensor_id;sensor_type;location;lat;lon;timestamp;pressure;altitude;pressure_sealevel;temperature;humidity
25510;BME280;13413;52.336;21.200;2023-02-18T00:01:14;99333.95;;;12.00;51.93
25510;BME280;13413;52.336;21.200;2023-02-18T00:04:08;99338.14;;;11.93;51.73
25510;BME280;13413;52.336;21.200;2023-02-18T00:07:02;99341.70;;;11.92;51.90
25510;BME280;13413;52.336;21.200;2023-02-18T00:09:56;99344.75;;;11.85;51.44
25510;BME280;13413;52.336;21.200;2023-02-18T00:12:50;99355.14;;;11.82;51.88
25510;BME280;13413;52.336;21.200;2023-02-18T00:15:44;99361.27;;;11.74;51.50
25510;BME280;13413;52.336;21.200;2023-02-18T00:18:38;99366.78;;;11.68;51.36
25510;BME280;13413;52.336;21.200;2023-02-18T00:21:33;99364.88;;;11.70;51.43
25510;BME280;13413;52.336;21.200;2023-02-18T00:24:27;99373.75;;;11.74;51.42
25510;BME280;13413;52.336;21.200;2023-02-18T00:27:21;99374.17;;;11.72;51.63
25510;BME280;13413;52.336;21.200;2023-02-18T00:30:16;99376.28;;;11.76;51.97
25510;BME280;13413;52.336;21.200;2023-02-18T00:33:09;99376.98;;;11.65;52.00
25510;BME280;13413;52.336;21.200;2023-02-18T00:36:07;99372.66;;;11.60;52.37
25510;BME280;13413;52.336;21.200;2023-02-18T00:39:03;99379.50;;;11.52;52.77
25510;BME280;13413;52.336;21.200;2023-02-18T00:41:57;99381.71;;;11.55;53.03
25510;BME280;13413;52.336;21.200;2023-02-18T00:44:51;99380.36;;;11.68;53.01
25510;BME280;13413;52.336;21.200;2023-02-18T00:47:45;99376.67;;;11.57;52.73
25510;BME280;13413;52.336;21.200;2023-02-18T00:50:39;99380.39;;;11.58;52.67
25510;BME280;13413;52.336;21.200;2023-02-18T00:53:34;99368.18;;;11.56;52.51
25510;BME280;13413;52.336;21.200;2023-02-18T00:56:28;99367.88;;;11.58;52.76
25510;BME280;13413;52.336;21.200;2023-02-18T00:59:22;99366.89;;;11.51;52.86
25510;BME280;13413;52.336;21.200;2023-02-18T01:02:16;99365.52;;;11.54;52.94
25510;BME280;13413;52.336;21.200;2023-02-18T01:05:10;99378.32;;;11.54;53.13
25510;BME280;13413;52.336;21.200;2023-02-18T01:08:04;99380.28;;;11.50;53.33
25510;BME280;13413;52.336;21.200;2023-02-18T01:10:58;99391.23;;;11.34;53.28
25510;BME280;13413;52.336;21.200;2023-02-18T01:13:52;99383.23;;;11.35;53.14
25510;BME280;13413;52.336;21.200;2023-02-18T01:16:46;99388.52;;;11.19;52.95
25510;BME280;13413;52.336;21.200;2023-02-18T01:19:40;99384.77;;;11.33;52.87
25510;BME280;13413;52.336;21.200;2023-02-18T01:25:45;99389.84;;;11.24;52.03
25510;BME280;13413;52.336;21.200;2023-02-18T01:28:39;99392.56;;;11.14;51.59
25510;BME280;13413;52.336;21.200;2023-02-18T01:48:54;99367.70;;;10.45;53.15
25510;BME280;13413;52.336;21.200;2023-02-18T01:51:54;99375.28;;;11.07;50.97
25510;BME280;13413;52.336;21.200;2023-02-18T01:54:51;99374.62;;;11.01;50.77
25510;BME280;13413;52.336;21.200;2023-02-18T01:57:47;99370.98;;;10.97;50.65
25510;BME280;13413;52.336;21.200;2023-02-18T02:00:40;99374.35;;;11.01;50.72
25510;BME280;13413;52.336;21.200;2023-02-18T02:03:34;99375.46;;;10.94;50.76
25510;BME280;13413;52.336;21.200;2023-02-18T02:06:28;99376.91;;;10.98;50.72
25510;BME280;13413;52.336;21.200;2023-02-18T02:09:25;99368.44;;;10.84;50.41
25510;BME280;13413;52.336;21.200;2023-02-18T02:12:42;99371.05;;;10.88;50.40
25510;BME280;13413;52.336;21.200;2023-02-18T02:15:44;99371.23;;;10.99;50.23
25510;BME280;13413;52.336;21.200;2023-02-18T02:18:49;99363.03;;;11.02;50.58
25510;BME280;13413;52.336;21.200;2023-02-18T02:25:24;99363.95;;;10.90;50.23
25510;BME280;13413;52.336;21.200;2023-02-18T02:28:52;99363.77;;;10.75;50.31
25510;BME280;13413;52.336;21.200;2023-02-18T02:32:14;99363.02;;;10.85;50.03
25510;BME280;13413;52.336;21.200;2023-02-18T02:35:16;99362.63;;;10.81;49.97
25510;BME280;13413;52.336;21.200;2023-02-18T02:38:20;99376.27;;;10.69;50.07
25510;BME280;13413;52.336;21.200;2023-02-18T02:41:24;99369.22;;;10.71;49.72
25510;BME280;13413;52.336;21.200;2023-02-18T02:44:23;99372.27;;;10.85;49.76
25510;BME280;13413;52.336;21.200;2023-02-18T02:47:27;99371.39;;;10.76;49.52
25510;BME280;13413;52.336;21.200;2023-02-18T02:50:31;99379.85;;;10.81;49.67
25510;BME280;13413;52.336;21.200;2023-02-18T02:53:33;99382.07;;;10.88;49.71
25510;BME280;13413;52.336;21.200;2023-02-18T02:56:27;99383.25;;;10.85;49.56
25510;BME280;13413;52.336;21.200;2023-02-18T02:59:25;99382.95;;;10.82;49.36
25510;BME280;13413;52.336;21.200;2023-02-18T03:02:27;99380.58;;;10.79;49.51
25510;BME280;13413;52.336;21.200;2023-02-18T03:05:42;99393.41;;;10.70;49.38
25510;BME280;13413;52.336;21.200;2023-02-18T03:08:48;99384.95;;;10.80;49.56
25510;BME280;13413;52.336;21.200;2023-02-18T03:11:52;99402.23;;;10.76;49.24
25510;BME280;13413;52.336;21.200;2023-02-18T03:14:55;99396.11;;;10.73;49.02
25510;BME280;13413;52.336;21.200;2023-02-18T03:17:59;99397.19;;;10.75;49.18
25510;BME280;13413;52.336;21.200;2023-02-18T03:20:57;99408.72;;;10.72;49.05
25510;BME280;13413;52.336;21.200;2023-02-18T03:23:57;99405.27;;;10.64;49.10
25510;BME280;13413;52.336;21.200;2023-02-18T03:26:56;99405.92;;;10.64;49.25
25510;BME280;13413;52.336;21.200;2023-02-18T03:29:56;99407.94;;;10.72;49.17
25510;BME280;13413;52.336;21.200;2023-02-18T03:32:54;99401.29;;;10.63;49.15
25510;BME280;13413;52.336;21.200;2023-02-18T03:35:50;99393.19;;;10.65;49.18
25510;BME280;13413;52.336;21.200;2023-02-18T03:38:49;99412.60;;;10.61;49.14
25510;BME280;13413;52.336;21.200;2023-02-18T03:41:47;99408.66;;;10.45;49.31
25510;BME280;13413;52.336;21.200;2023-02-18T03:44:41;99412.34;;;10.47;49.31
25510;BME280;13413;52.336;21.200;2023-02-18T03:47:35;99409.98;;;10.41;49.39
25510;BME280;13413;52.336;21.200;2023-02-18T03:50:29;99414.25;;;10.37;49.31
25510;BME280;13413;52.336;21.200;2023-02-18T03:53:23;99418.86;;;10.48;49.40
25510;BME280;13413;52.336;21.200;2023-02-18T03:56:18;99413.70;;;10.50;49.46
25510;BME280;13413;52.336;21.200;2023-02-18T03:59:10;99406.61;;;10.43;49.56
25510;BME280;13413;52.336;21.200;2023-02-18T04:04:51;99415.11;;;10.45;49.50
25510;BME280;13413;52.336;21.200;2023-02-18T04:07:45;99423.34;;;10.36;49.58
25510;BME280;13413;52.336;21.200;2023-02-18T04:10:38;99413.90;;;10.33;49.38
25510;BME280;13413;52.336;21.200;2023-02-18T04:13:33;99419.21;;;10.42;49.30
25510;BME280;13413;52.336;21.200;2023-02-18T04:16:27;99428.53;;;10.37;49.38
25510;BME280;13413;52.336;21.200;2023-02-18T04:19:21;99427.27;;;10.32;49.46
25510;BME280;13413;52.336;21.200;2023-02-18T04:22:15;99425.49;;;10.35;49.34
25510;BME280;13413;52.336;21.200;2023-02-18T04:25:09;99429.11;;;10.30;49.44
25510;BME280;13413;52.336;21.200;2023-02-18T04:28:04;99430.02;;;10.31;49.42
25510;BME280;13413;52.336;21.200;2023-02-18T04:30:58;99422.14;;;10.18;49.57
25510;BME280;13413;52.336;21.200;2023-02-18T04:33:52;99420.99;;;10.19;49.50
25510;BME280;13413;52.336;21.200;2023-02-18T04:36:46;99425.83;;;10.04;49.57
25510;BME280;13413;52.336;21.200;2023-02-18T04:39:40;99426.57;;;10.10;49.63
25510;BME280;13413;52.336;21.200;2023-02-18T04:42:34;99438.65;;;10.08;49.69
25510;BME280;13413;52.336;21.200;2023-02-18T04:45:28;99444.88;;;10.07;49.67
25510;BME280;13413;52.336;21.200;2023-02-18T04:48:22;99464.29;;;10.07;49.73
25510;BME280;13413;52.336;21.200;2023-02-18T04:51:16;99450.41;;;9.93;49.90
25510;BME280;13413;52.336;21.200;2023-02-18T04:54:10;99452.31;;;10.03;49.80
25510;BME280;13413;52.336;21.200;2023-02-18T04:57:04;99452.84;;;10.07;49.78
25510;BME280;13413;52.336;21.200;2023-02-18T04:59:58;99453.84;;;10.05;49.92
25510;BME280;13413;52.336;21.200;2023-02-18T05:02:51;99461.88;;;10.08;49.86
25510;BME280;13413;52.336;21.200;2023-02-18T05:05:46;99468.06;;;10.10;49.73
25510;BME280;13413;52.336;21.200;2023-02-18T05:08:40;99461.81;;;9.98;50.00
25510;BME280;13413;52.336;21.200;2023-02-18T05:11:34;99460.31;;;9.93;50.07
25510;BME280;13413;52.336;21.200;2023-02-18T05:14:28;99477.80;;;9.87;50.06
25510;BME280;13413;52.336;21.200;2023-02-18T05:17:24;99471.10;;;9.90;50.21
25510;BME280;13413;52.336;21.200;2023-02-18T05:20:18;99468.85;;;9.80;50.26
25510;BME280;13413;52.336;21.200;2023-02-18T05:23:11;99469.59;;;9.96;50.31
25510;BME280;13413;52.336;21.200;2023-02-18T05:26:06;99475.74;;;9.87;50.30
25510;BME280;13413;52.336;21.200;2023-02-18T05:29:00;99480.17;;;9.96;50.32
25510;BME280;13413;52.336;21.200;2023-02-18T05:31:54;99488.82;;;9.95;50.15
25510;BME280;13413;52.336;21.200;2023-02-18T05:34:48;99489.23;;;9.96;50.09
25510;BME280;13413;52.336;21.200;2023-02-18T05:37:42;99489.34;;;9.94;50.07
25510;BME280;13413;52.336;21.200;2023-02-18T05:43:30;99500.79;;;9.89;50.21
25510;BME280;13413;52.336;21.200;2023-02-18T05:46:24;99497.42;;;9.90;50.30
25510;BME280;13413;52.336;21.200;2023-02-18T05:49:18;99488.46;;;9.87;50.35
25510;BME280;13413;52.336;21.200;2023-02-18T05:52:12;99488.22;;;9.80;50.36
25510;BME280;13413;52.336;21.200;2023-02-18T05:55:07;99493.23;;;9.75;50.32
25510;BME280;13413;52.336;21.200;2023-02-18T05:58:00;99496.12;;;9.75;50.37
25510;BME280;13413;52.336;21.200;2023-02-18T06:00:55;99493.40;;;9.76;50.50
25510;BME280;13413;52.336;21.200;2023-02-18T06:03:49;99496.23;;;9.75;50.58
25510;BME280;13413;52.336;21.200;2023-02-18T06:06:42;99497.08;;;9.73;50.61
25510;BME280;13413;52.336;21.200;2023-02-18T06:09:37;99499.95;;;9.67;50.69
25510;BME280;13413;52.336;21.200;2023-02-18T06:15:23;99509.98;;;9.64;50.75
25510;BME280;13413;52.336;21.200;2023-02-18T06:26:09;99529.41;;;9.75;50.69
25510;BME280;13413;52.336;21.200;2023-02-18T06:29:03;99534.83;;;9.66;50.65
25510;BME280;13413;52.336;21.200;2023-02-18T06:31:58;99535.39;;;9.76;50.56
25510;BME280;13413;52.336;21.200;2023-02-18T06:34:51;99543.48;;;9.70;50.52
25510;BME280;13413;52.336;21.200;2023-02-18T06:37:45;99552.11;;;9.76;50.45
25510;BME280;13413;52.336;21.200;2023-02-18T06:40:39;99550.08;;;9.74;50.31
25510;BME280;13413;52.336;21.200;2023-02-18T06:43:33;99541.55;;;9.72;50.33
25510;BME280;13413;52.336;21.200;2023-02-18T06:46:27;99532.45;;;9.74;50.40
25510;BME280;13413;52.336;21.200;2023-02-18T06:49:21;99537.43;;;9.79;50.31
25510;BME280;13413;52.336;21.200;2023-02-18T06:52:15;99535.77;;;9.77;50.22
25510;BME280;13413;52.336;21.200;2023-02-18T06:55:09;99534.23;;;9.78;50.14
25510;BME280;13413;52.336;21.200;2023-02-18T06:58:04;99546.52;;;9.80;50.24
25510;BME280;13413;52.336;21.200;2023-02-18T07:00:57;99541.66;;;9.88;50.16
25510;BME280;13413;52.336;21.200;2023-02-18T07:03:51;99557.48;;;9.86;50.31
25510;BME280;13413;52.336;21.200;2023-02-18T07:06:45;99554.34;;;9.81;50.21
25510;BME280;13413;52.336;21.200;2023-02-18T07:09:39;99556.84;;;9.86;50.04
25510;BME280;13413;52.336;21.200;2023-02-18T07:12:33;99563.96;;;9.86;50.10
25510;BME280;13413;52.336;21.200;2023-02-18T07:15:27;99564.92;;;9.98;49.90
25510;BME280;13413;52.336;21.200;2023-02-18T07:18:21;99569.56;;;9.92;49.78
25510;BME280;13413;52.336;21.200;2023-02-18T07:21:15;99570.39;;;9.93;49.83
25510;BME280;13413;52.336;21.200;2023-02-18T07:24:09;99570.54;;;9.93;49.44
25510;BME280;13413;52.336;21.200;2023-02-18T07:27:03;99576.16;;;9.93;49.43
25510;BME280;13413;52.336;21.200;2023-02-18T07:29:57;99577.88;;;9.96;49.34
25510;BME280;13413;52.336;21.200;2023-02-18T07:32:51;99586.98;;;9.94;49.19
25510;BME280;13413;52.336;21.200;2023-02-18T07:35:45;99583.72;;;9.97;49.03
25510;BME280;13413;52.336;21.200;2023-02-18T07:38:39;99585.73;;;10.01;48.67
25510;BME280;13413;52.336;21.200;2023-02-18T07:41:33;99587.90;;;9.96;48.49
25510;BME280;13413;52.336;21.200;2023-02-18T07:44:27;99589.16;;;10.10;48.43
25510;BME280;13413;52.336;21.200;2023-02-18T07:47:21;99588.05;;;10.15;48.36
25510;BME280;13413;52.336;21.200;2023-02-18T07:53:11;99594.38;;;10.27;48.22
25510;BME280;13413;52.336;21.200;2023-02-18T07:56:06;99595.38;;;10.23;47.91
25510;BME280;13413;52.336;21.200;2023-02-18T07:58:59;99595.54;;;10.14;47.74
25510;BME280;13413;52.336;21.200;2023-02-18T08:01:52;99594.77;;;10.29;47.87
25510;BME280;13413;52.336;21.200;2023-02-18T08:04:47;99597.77;;;10.16;47.72
25510;BME280;13413;52.336;21.200;2023-02-18T08:07:41;99595.80;;;10.16;47.58
25510;BME280;13413;52.336;21.200;2023-02-18T08:10:35;99604.89;;;10.36;47.65
25510;BME280;13413;52.336;21.200;2023-02-18T08:13:29;99600.90;;;10.21;47.37
25510;BME280;13413;52.336;21.200;2023-02-18T08:16:24;99602.35;;;10.21;47.51
25510;BME280;13413;52.336;21.200;2023-02-18T08:19:17;99605.58;;;10.29;47.27
25510;BME280;13413;52.336;21.200;2023-02-18T08:22:11;99605.79;;;10.25;47.19
25510;BME280;13413;52.336;21.200;2023-02-18T08:25:06;99603.35;;;10.25;47.53
25510;BME280;13413;52.336;21.200;2023-02-18T08:28:01;99610.41;;;10.27;47.43
25510;BME280;13413;52.336;21.200;2023-02-18T08:33:49;99606.19;;;10.39;47.15
25510;BME280;13413;52.336;21.200;2023-02-18T08:36:41;99604.10;;;10.34;47.12
25510;BME280;13413;52.336;21.200;2023-02-18T08:42:25;99598.61;;;10.45;47.17
25510;BME280;13413;52.336;21.200;2023-02-18T08:45:19;99600.09;;;10.48;47.15
25510;BME280;13413;52.336;21.200;2023-02-18T08:48:14;99605.53;;;10.39;47.00
25510;BME280;13413;52.336;21.200;2023-02-18T08:51:17;99603.55;;;10.41;46.90
25510;BME280;13413;52.336;21.200;2023-02-18T08:54:12;99602.63;;;10.48;46.87
25510;BME280;13413;52.336;21.200;2023-02-18T08:57:06;99609.08;;;10.49;46.81
25510;BME280;13413;52.336;21.200;2023-02-18T09:02:53;99620.80;;;10.44;46.60
25510;BME280;13413;52.336;21.200;2023-02-18T09:05:47;99613.35;;;10.37;46.64
25510;BME280;13413;52.336;21.200;2023-02-18T09:08:41;99620.20;;;10.49;46.10
25510;BME280;13413;52.336;21.200;2023-02-18T09:11:36;99615.72;;;10.65;46.23
25510;BME280;13413;52.336;21.200;2023-02-18T09:14:30;99622.98;;;10.71;46.07
25510;BME280;13413;52.336;21.200;2023-02-18T09:17:23;99623.91;;;10.71;45.78
25510;BME280;13413;52.336;21.200;2023-02-18T09:20:18;99628.80;;;10.63;45.78
25510;BME280;13413;52.336;21.200;2023-02-18T09:23:12;99626.42;;;10.57;45.85
25510;BME280;13413;52.336;21.200;2023-02-18T09:26:20;99629.41;;;10.53;45.89
25510;BME280;13413;52.336;21.200;2023-02-18T09:29:13;99647.30;;;10.40;45.71
25510;BME280;13413;52.336;21.200;2023-02-18T09:32:07;99630.89;;;10.49;45.66
25510;BME280;13413;52.336;21.200;2023-02-18T09:35:02;99643.79;;;10.65;45.84
25510;BME280;13413;52.336;21.200;2023-02-18T09:50:35;99656.66;;;10.40;46.14
25510;BME280;13413;52.336;21.200;2023-02-18T09:53:29;99655.71;;;10.74;45.20
25510;BME280;13413;52.336;21.200;2023-02-18T09:56:28;99664.77;;;10.71;45.38
25510;BME280;13413;52.336;21.200;2023-02-18T09:59:25;99663.49;;;10.84;45.53
25510;BME280;13413;52.336;21.200;2023-02-18T10:02:19;99662.38;;;10.94;45.40
25510;BME280;13413;52.336;21.200;2023-02-18T10:05:15;99669.91;;;10.97;45.47
25510;BME280;13413;52.336;21.200;2023-02-18T10:08:18;99665.73;;;10.99;45.30
25510;BME280;13413;52.336;21.200;2023-02-18T10:11:16;99669.53;;;11.08;45.25
25510;BME280;13413;52.336;21.200;2023-02-18T10:14:12;99679.88;;;11.17;45.29
25510;BME280;13413;52.336;21.200;2023-02-18T10:17:09;99672.04;;;10.91;45.08
25510;BME280;13413;52.336;21.200;2023-02-18T10:20:09;99676.48;;;10.89;45.55
25510;BME280;13413;52.336;21.200;2023-02-18T10:23:09;99674.48;;;11.17;45.56
25510;BME280;13413;52.336;21.200;2023-02-18T10:26:09;99673.94;;;11.22;45.21
25510;BME280;13413;52.336;21.200;2023-02-18T10:29:12;99684.52;;;11.00;45.18
25510;BME280;13413;52.336;21.200;2023-02-18T10:32:15;99676.70;;;11.03;44.90
25510;BME280;13413;52.336;21.200;2023-02-18T10:35:18;99672.54;;;10.79;44.97
25510;BME280;13413;52.336;21.200;2023-02-18T10:38:18;99678.23;;;10.97;44.86
25510;BME280;13413;52.336;21.200;2023-02-18T10:41:17;99677.85;;;11.00;44.98
25510;BME280;13413;52.336;21.200;2023-02-18T10:44:22;99683.11;;;11.13;44.90
25510;BME280;13413;52.336;21.200;2023-02-18T10:47:23;99676.20;;;11.04;44.85
25510;BME280;13413;52.336;21.200;2023-02-18T10:50:27;99669.20;;;11.23;44.67
25510;BME280;13413;52.336;21.200;2023-02-18T10:53:29;99659.42;;;11.26;44.58
25510;BME280;13413;52.336;21.200;2023-02-18T10:56:39;99655.98;;;11.24;44.83
25510;BME280;13413;52.336;21.200;2023-02-18T10:59:33;99650.95;;;11.38;44.66
25510;BME280;13413;52.336;21.200;2023-02-18T11:02:30;99652.74;;;11.48;44.77
25510;BME280;13413;52.336;21.200;2023-02-18T11:05:26;99652.75;;;11.50;44.60
25510;BME280;13413;52.336;21.200;2023-02-18T11:08:23;99659.27;;;11.37;44.40
25510;BME280;13413;52.336;21.200;2023-02-18T11:11:24;99656.14;;;11.31;44.52
25510;BME280;13413;52.336;21.200;2023-02-18T11:14:37;99664.86;;;11.37;44.82
25510;BME280;13413;52.336;21.200;2023-02-18T11:17:33;99652.02;;;11.32;44.72
25510;BME280;13413;52.336;21.200;2023-02-18T11:20:27;99651.05;;;11.27;44.68
25510;BME280;13413;52.336;21.200;2023-02-18T11:23:22;99653.21;;;11.18;44.46
25510;BME280;13413;52.336;21.200;2023-02-18T11:26:18;99641.49;;;11.25;44.57
25510;BME280;13413;52.336;21.200;2023-02-18T11:29:21;99637.27;;;11.31;44.62
25510;BME280;13413;52.336;21.200;2023-02-18T11:32:17;99641.23;;;11.26;44.70
25510;BME280;13413;52.336;21.200;2023-02-18T11:35:20;99647.81;;;11.15;44.83
25510;BME280;13413;52.336;21.200;2023-02-18T11:38:21;99651.15;;;10.92;44.67
25510;BME280;13413;52.336;21.200;2023-02-18T11:41:17;99643.73;;;11.01;44.63
25510;BME280;13413;52.336;21.200;2023-02-18T11:44:21;99637.10;;;11.13;44.62
25510;BME280;13413;52.336;21.200;2023-02-18T11:47:24;99639.90;;;11.17;44.46
25510;BME280;13413;52.336;21.200;2023-02-18T11:50:22;99633.17;;;11.10;44.37
25510;BME280;13413;52.336;21.200;2023-02-18T11:53:27;99630.52;;;11.10;44.47
25510;BME280;13413;52.336;21.200;2023-02-18T11:56:21;99630.65;;;11.12;44.62
25510;BME280;13413;52.336;21.200;2023-02-18T11:59:16;99626.52;;;11.26;44.75
25510;BME280;13413;52.336;21.200;2023-02-18T12:02:13;99624.86;;;11.36;44.80
25510;BME280;13413;52.336;21.200;2023-02-18T12:10:50;99614.64;;;11.43;44.46
25510;BME280;13413;52.336;21.200;2023-02-18T12:13:49;99621.48;;;11.44;44.27
25510;BME280;13413;52.336;21.200;2023-02-18T12:16:56;99617.15;;;11.37;44.21
25510;BME280;13413;52.336;21.200;2023-02-18T12:20:20;99619.63;;;11.34;44.39
25510;BME280;13413;52.336;21.200;2023-02-18T12:23:24;99615.21;;;11.41;44.49
25510;BME280;13413;52.336;21.200;2023-02-18T12:26:27;99615.39;;;11.37;44.33
25510;BME280;13413;52.336;21.200;2023-02-18T12:29:36;99608.80;;;11.22;44.25
25510;BME280;13413;52.336;21.200;2023-02-18T12:32:43;99612.63;;;11.31;44.33
25510;BME280;13413;52.336;21.200;2023-02-18T12:35:51;99612.34;;;11.30;44.17
25510;BME280;13413;52.336;21.200;2023-02-18T12:39:07;99607.08;;;11.32;44.03
25510;BME280;13413;52.336;21.200;2023-02-18T12:42:15;99604.30;;;11.32;44.12
25510;BME280;13413;52.336;21.200;2023-02-18T12:45:36;99602.83;;;11.27;44.38
25510;BME280;13413;52.336;21.200;2023-02-18T12:48:46;99592.75;;;11.33;44.33
25510;BME280;13413;52.336;21.200;2023-02-18T12:51:54;99590.89;;;11.27;44.32
25510;BME280;13413;52.336;21.200;2023-02-18T12:58:40;99585.50;;;11.37;44.10
25510;BME280;13413;52.336;21.200;2023-02-18T13:01:48;99582.56;;;11.36;44.09
25510;BME280;13413;52.336;21.200;2023-02-18T13:04:51;99588.67;;;11.45;44.28
25510;BME280;13413;52.336;21.200;2023-02-18T13:08:00;99591.13;;;11.34;43.97
25510;BME280;13413;52.336;21.200;2023-02-18T13:11:08;99585.48;;;11.31;43.91
25510;BME280;13413;52.336;21.200;2023-02-18T13:14:10;99589.73;;;11.29;43.82
25510;BME280;13413;52.336;21.200;2023-02-18T13:17:09;99570.23;;;11.29;44.01
25510;BME280;13413;52.336;21.200;2023-02-18T13:20:19;99571.03;;;11.26;43.79
25510;BME280;13413;52.336;21.200;2023-02-18T13:23:18;99569.45;;;11.38;43.85
25510;BME280;13413;52.336;21.200;2023-02-18T13:26:14;99565.98;;;11.57;43.76
25510;BME280;13413;52.336;21.200;2023-02-18T13:29:21;99567.26;;;11.72;43.81
25510;BME280;13413;52.336;21.200;2023-02-18T13:32:23;99568.00;;;11.64;43.65
25510;BME280;13413;52.336;21.200;2023-02-18T13:35:22;99566.92;;;11.58;43.65
25510;BME280;13413;52.336;21.200;2023-02-18T13:38:47;99572.30;;;11.57;43.75
25510;BME280;13413;52.336;21.200;2023-02-18T13:41:42;99571.77;;;11.48;43.93
25510;BME280;13413;52.336;21.200;2023-02-18T13:45:15;99569.41;;;11.26;44.21
25510;BME280;13413;52.336;21.200;2023-02-18T13:48:27;99566.17;;;11.24;44.54
25510;BME280;13413;52.336;21.200;2023-02-18T13:51:36;99569.01;;;11.29;44.70
25510;BME280;13413;52.336;21.200;2023-02-18T13:54:33;99566.39;;;11.30;44.89
25510;BME280;13413;52.336;21.200;2023-02-18T13:57:31;99566.30;;;11.24;45.07
25510;BME280;13413;52.336;21.200;2023-02-18T14:00:40;99569.52;;;11.22;45.10
25510;BME280;13413;52.336;21.200;2023-02-18T14:03:57;99563.39;;;11.22;45.20
25510;BME280;13413;52.336;21.200;2023-02-18T14:10:27;99562.42;;;11.14;45.54
25510;BME280;13413;52.336;21.200;2023-02-18T14:13:36;99568.05;;;11.20;45.63
25510;BME280;13413;52.336;21.200;2023-02-18T14:32:46;99547.14;;;11.02;46.44
25510;BME280;13413;52.336;21.200;2023-02-18T14:35:48;99534.54;;;11.05;46.44
25510;BME280;13413;52.336;21.200;2023-02-18T14:38:51;99525.70;;;11.00;46.50
25510;BME280;13413;52.336;21.200;2023-02-18T14:41:50;99519.59;;;10.83;46.83
25510;BME280;13413;52.336;21.200;2023-02-18T14:45:01;99518.05;;;10.88;46.78
25510;BME280;13413;52.336;21.200;2023-02-18T14:48:09;99506.73;;;10.91;46.74
25510;BME280;13413;52.336;21.200;2023-02-18T14:51:09;99506.77;;;10.89;47.10
25510;BME280;13413;52.336;21.200;2023-02-18T14:54:12;99504.61;;;10.83;47.28
25510;BME280;13413;52.336;21.200;2023-02-18T14:57:12;99502.16;;;10.73;47.58
25510;BME280;13413;52.336;21.200;2023-02-18T15:00:16;99501.14;;;10.70;47.51
25510;BME280;13413;52.336;21.200;2023-02-18T15:03:15;99499.85;;;10.69;47.44
25510;BME280;13413;52.336;21.200;2023-02-18T15:06:31;99492.81;;;10.56;47.54
25510;BME280;13413;52.336;21.200;2023-02-18T15:09:26;99488.02;;;10.53;47.63
25510;BME280;13413;52.336;21.200;2023-02-18T15:15:17;99499.77;;;10.36;48.57
25510;BME280;13413;52.336;21.200;2023-02-18T15:18:20;99498.39;;;10.21;49.16
25510;BME280;13413;52.336;21.200;2023-02-18T15:21:20;99503.81;;;10.25;49.72
25510;BME280;13413;52.336;21.200;2023-02-18T15:27:20;99520.85;;;9.92;51.29
25510;BME280;13413;52.336;21.200;2023-02-18T15:30:20;99525.67;;;9.73;52.13
25510;BME280;13413;52.336;21.200;2023-02-18T15:33:16;99534.30;;;9.48;53.03
25510;BME280;13413;52.336;21.200;2023-02-18T15:36:24;99532.73;;;9.34;53.77
25510;BME280;13413;52.336;21.200;2023-02-18T15:39:17;99547.09;;;9.21;54.35
25510;BME280;13413;52.336;21.200;2023-02-18T15:42:18;99534.86;;;8.96;54.87
25510;BME280;13413;52.336;21.200;2023-02-18T15:45:19;99543.60;;;8.88;54.85
25510;BME280;13413;52.336;21.200;2023-02-18T15:48:22;99542.38;;;8.81;55.24
25510;BME280;13413;52.336;21.200;2023-02-18T15:51:21;99531.69;;;8.73;55.11
25510;BME280;13413;52.336;21.200;2023-02-18T15:54:19;99537.36;;;8.77;54.75
25510;BME280;13413;52.336;21.200;2023-02-18T15:57:16;99528.70;;;8.77;54.67
25510;BME280;13413;52.336;21.200;2023-02-18T16:00:20;99520.38;;;8.63;54.96
25510;BME280;13413;52.336;21.200;2023-02-18T16:03:21;99522.21;;;8.55;55.36
25510;BME280;13413;52.336;21.200;2023-02-18T16:06:20;99522.66;;;8.51;55.58
25510;BME280;13413;52.336;21.200;2023-02-18T16:09:18;99531.55;;;8.48;55.87
25510;BME280;13413;52.336;21.200;2023-02-18T16:12:21;99534.28;;;8.48;56.14
25510;BME280;13413;52.336;21.200;2023-02-18T16:15:24;99536.64;;;8.48;56.38
25510;BME280;13413;52.336;21.200;2023-02-18T16:18:35;99537.09;;;8.48;56.27
25510;BME280;13413;52.336;21.200;2023-02-18T16:21:38;99536.64;;;8.54;56.61
25510;BME280;13413;52.336;21.200;2023-02-18T16:24:40;99538.50;;;8.44;57.07
25510;BME280;13413;52.336;21.200;2023-02-18T16:27:37;99536.85;;;8.40;57.29
25510;BME280;13413;52.336;21.200;2023-02-18T16:30:32;99540.50;;;8.48;57.19
25510;BME280;13413;52.336;21.200;2023-02-18T16:33:26;99546.73;;;8.46;57.59
25510;BME280;13413;52.336;21.200;2023-02-18T16:36:22;99549.48;;;8.49;57.48
25510;BME280;13413;52.336;21.200;2023-02-18T16:39:16;99551.42;;;8.46;57.88
25510;BME280;13413;52.336;21.200;2023-02-18T16:42:12;99556.19;;;8.49;57.94
25510;BME280;13413;52.336;21.200;2023-02-18T16:47:48;99568.48;;;8.42;58.52
25510;BME280;13413;52.336;21.200;2023-02-18T16:50:42;99579.89;;;8.29;58.76
25510;BME280;13413;52.336;21.200;2023-02-18T16:53:36;99581.81;;;8.15;59.41
25510;BME280;13413;52.336;21.200;2023-02-18T16:56:31;99582.30;;;8.10;59.36
25510;BME280;13413;52.336;21.200;2023-02-18T16:59:25;99579.65;;;8.09;59.42
25510;BME280;13413;52.336;21.200;2023-02-18T17:02:21;99574.38;;;8.06;59.61
25510;BME280;13413;52.336;21.200;2023-02-18T17:05:20;99572.00;;;8.05;59.74
25510;BME280;13413;52.336;21.200;2023-02-18T17:08:17;99557.64;;;7.97;59.81
25510;BME280;13413;52.336;21.200;2023-02-18T17:11:18;99556.38;;;7.97;59.72
25510;BME280;13413;52.336;21.200;2023-02-18T17:14:14;99553.59;;;7.92;59.98
25510;BME280;13413;52.336;21.200;2023-02-18T17:17:11;99551.33;;;7.92;60.11